Palm Beach, FL (33480)

8:26 PM EST on November 22, 2014 (GMT -0500)
Palm Beach, FL | Change Station
CLOSE
Current Station
Personal Weather Station
Location: Palm Beach, FL
Elevation: 8 ft
Nearby Weather Stations
Active Advisory: Coastal Hazard Statement

Elev 8 ft 26.71 °N, 80.04 °W | Updated 5 seconds ago

Overcast
Overcast
76.5 °F
Feels Like 78 °F
N
14.1
Wind Variable Wind from ESE
Gusts 25.0 mph

Today
High -- | Low -- °F
--% Chance of Precip.
Yesterday
High -- | Low -- °F
Precip. -- in
6:44 AM 5:27 PM
New Moon, 0% visible
Pressure 30.09 in
Visibility 10.0 miles
Clouds Mostly Cloudy 1800 ft
Overcast 3500 ft
Heat Index 78 °F
Dew Point 71 °F
Humidity 84%
Rainfall 0.00 in
Snow Depth Not available.
UV 0 out of 12
Pollen 4.30 out of 12
Air Quality Not available.
Flu Activity Not available.
METAR KPBI 230053Z 09023G31KT 10SM BKN018 OVC035 25/21 A3010 RMK AO2 PK WND 09032/0022 SLP190 T02500206

More Conditions Fewer Conditions

Pressure 30.09 in
Visibility 10.0 miles
Clouds Mostly Cloudy 1800 ft
Overcast 3500 ft
Heat Index 78 °F
Dew Point 71 °F
Humidity 84%
Rainfall 0.00 in
Snow Depth Not available.
UV 0 out of 12
Pollen 4.30 out of 12
Air Quality Not available.
Flu Activity Not available.
METAR KPBI 230053Z 09023G31KT 10SM BKN018 OVC035 25/21 A3010 RMK AO2 PK WND 09032/0022 SLP190 T02500206

More Conditions Fewer Conditions

Nowcast | as of 7:32 PM EST on November 22, 2014

A few light sprinkles and intermittent drizzle will spread northwest through South Florida this evening. Rainfall amounts will remain one-tenth inch or less.

×

10-Day Weather Forecast

Almanac

Astronomy

Nov. 22, 2014 Rise Set
Actual Time
Civil Twilight
Nautical Twilight
Astronomical Twilight
Moon
Length of Visible Light
Length of Day
Tomorrow will be .
, % of the Moon is Illuminated

Today's Extremes

State Highs State Lows

Community

WunderPhotos

Upload Photos

1,772,956 photos uploaded!

WunderBlogs® & News

Nearby

Air Quality

  Air Quality AQ Index Pollutant
Not available.

Snow Depth

Station Depth Elevation

Earthquake Activity

City Distance Mag. Time & Date
Minimum magnitude displayed is 2.5.

Coastal Water Temperatures

Place Temperature

Nearby Weather Stations